Colonia Pastoril, Argentina
Current Conditions -  °F | °C
As of 1:00 AM on Saturday 25 Oct 2014 (Local Time) from SGAS Reporting Station
Clear Clear  
Wind Chill: 24°   Ceiling: Unl
Heat Index: 24°   Visibility: 6mi
Dew Point: 20°   Wind: 0mph
Humidity: 78%   Direction: NA
Pressure: 29.85"   Gusts: NA
Location:  26.14°S, 58.39°W
Report Text: SGAS 250400Z 00000KT 9000 NSC 24/20 Q1011
Loading
Personal Weather Stations






























Interactive Weather Map
Tropical Storm Tracking
New forecast layout! Learn more

10-Day Weather Forecast

Advertisements
Track Severe Weather on mobile